createdAt,value
2022-08-05T00:00:43.097Z,17.38
2022-08-05T00:03:15.675Z,17.37
2022-08-05T00:06:04.661Z,17.36
2022-08-05T00:08:36.199Z,17.42
2022-08-05T00:11:30.172Z,17.49
2022-08-05T00:13:58.184Z,17.60
2022-08-05T00:16:35.396Z,17.60
2022-08-05T00:19:05.219Z,17.58
2022-08-05T00:21:35.891Z,17.54
2022-08-05T00:24:10.561Z,17.56
2022-08-05T00:26:46.701Z,17.47
2022-08-05T00:30:29.254Z,17.37
2022-08-05T00:32:59.780Z,17.27
2022-08-05T00:35:33.325Z,17.17
2022-08-05T00:38:03.492Z,17.09
2022-08-05T00:40:53.289Z,17.08
2022-08-05T00:43:21.549Z,16.96
2022-08-05T00:45:49.528Z,16.88
2022-08-05T00:48:27.670Z,16.77
2022-08-05T00:50:59.593Z,16.67
2022-08-05T00:54:00.575Z,16.66
2022-08-05T00:56:24.973Z,16.58
2022-08-05T00:58:52.667Z,16.47
2022-08-05T01:01:24.935Z,16.49
2022-08-05T01:04:14.304Z,16.64
2022-08-05T01:06:48.537Z,16.88
2022-08-05T01:09:20.008Z,16.97
2022-08-05T01:11:51.705Z,17.04
2022-08-05T01:14:28.420Z,17.13
2022-08-05T01:17:58.033Z,17.17
2022-08-05T01:20:31.625Z,17.17
2022-08-05T01:23:15.295Z,17.13
2022-08-05T01:27:01.041Z,17.12
2022-08-05T01:29:51.840Z,17.14
2022-08-05T01:32:23.841Z,17.14
2022-08-05T01:34:58.343Z,17.13
2022-08-05T01:37:32.246Z,17.12
2022-08-05T01:40:03.037Z,17.08
2022-08-05T01:42:33.063Z,17.09
2022-08-05T01:45:03.463Z,17.07
2022-08-05T01:47:39.277Z,17.08
2022-08-05T01:50:15.314Z,17.05
2022-08-05T01:52:44.642Z,17.05
2022-08-05T01:55:19.873Z,17.05
2022-08-05T01:58:11.867Z,17.00
2022-08-05T02:00:44.399Z,16.98
2022-08-05T02:03:29.030Z,16.93
2022-08-05T02:06:03.748Z,16.88
2022-08-05T02:08:58.549Z,16.86
2022-08-05T02:11:32.751Z,16.82
2022-08-05T02:14:07.233Z,16.78
2022-08-05T02:18:31.988Z,16.74
2022-08-05T02:20:41.671Z,16.77
2022-08-05T02:23:12.187Z,16.77
2022-08-05T02:25:49.229Z,16.77
2022-08-05T02:28:28.882Z,16.78
2022-08-05T02:32:04.862Z,16.72
2022-08-05T02:34:34.008Z,16.73
2022-08-05T02:37:05.473Z,16.73
2022-08-05T02:39:36.991Z,16.71
2022-08-05T02:42:10.820Z,16.70
2022-08-05T02:44:56.364Z,16.73
2022-08-05T02:47:26.016Z,16.74
2022-08-05T02:51:17.978Z,16.78
2022-08-05T02:54:03.422Z,16.77
2022-08-05T02:56:33.683Z,16.75
2022-08-05T02:59:02.484Z,16.79
2022-08-05T03:01:33.277Z,16.73
2022-08-05T03:04:13.998Z,16.71
2022-08-05T03:06:54.363Z,16.73
2022-08-05T03:09:37.608Z,16.73
2022-08-05T03:12:11.756Z,16.69
2022-08-05T03:14:46.006Z,16.71
2022-08-05T03:17:16.656Z,16.73
2022-08-05T03:19:45.570Z,16.81
2022-08-05T03:22:16.832Z,16.79
2022-08-05T03:24:50.931Z,16.80
2022-08-05T03:27:19.767Z,16.77
2022-08-05T03:30:07.530Z,16.78
2022-08-05T03:32:36.112Z,16.73
2022-08-05T03:35:04.484Z,16.76
2022-08-05T03:37:46.558Z,16.85
2022-08-05T03:40:31.144Z,16.78
2022-08-05T03:43:15.912Z,16.72
2022-08-05T03:45:58.037Z,16.69
2022-08-05T03:48:27.566Z,16.68
2022-08-05T03:52:38.086Z,16.64
2022-08-05T03:56:00.722Z,16.58
2022-08-05T03:56:52.813Z,16.56
2022-08-05T03:59:26.082Z,16.58
2022-08-05T04:01:58.903Z,16.53
2022-08-05T04:04:30.007Z,16.57
2022-08-05T04:06:59.200Z,16.55
2022-08-05T04:09:27.950Z,16.54
2022-08-05T04:11:58.173Z,16.56
2022-08-05T04:14:29.823Z,16.54
2022-08-05T04:17:00.078Z,16.51
2022-08-05T04:19:29.762Z,16.51
2022-08-05T04:22:09.508Z,16.50
2022-08-05T04:24:43.828Z,16.37
2022-08-05T04:27:15.293Z,16.40
2022-08-05T04:29:43.573Z,16.42
2022-08-05T04:33:13.094Z,16.40
2022-08-05T04:36:15.804Z,16.32
2022-08-05T04:38:39.576Z,16.36
2022-08-05T04:41:09.602Z,16.27
2022-08-05T04:43:48.151Z,16.28
2022-08-05T04:46:28.231Z,16.23
2022-08-05T04:48:58.686Z,16.18
2022-08-05T04:51:30.309Z,16.17
2022-08-05T04:53:59.291Z,16.16
2022-08-05T04:56:34.326Z,16.11
2022-08-05T04:59:21.996Z,16.12
2022-08-05T05:02:06.850Z,16.11
2022-08-05T05:04:47.568Z,16.13
2022-08-05T05:07:23.944Z,16.19
2022-08-05T05:09:57.421Z,16.19
2022-08-05T05:12:27.562Z,16.24
2022-08-05T05:15:03.759Z,16.23
2022-08-05T05:17:57.067Z,16.26
2022-08-05T05:20:28.328Z,16.32
2022-08-05T05:22:56.846Z,16.36
2022-08-05T05:25:40.421Z,16.32
2022-08-05T05:28:09.673Z,16.37
2022-08-05T05:30:41.868Z,16.35
2022-08-05T05:33:17.095Z,16.44
2022-08-05T05:35:47.483Z,16.31
2022-08-05T05:38:22.862Z,16.33
2022-08-05T05:40:55.072Z,16.33
2022-08-05T05:43:54.201Z,16.32
2022-08-05T05:46:15.788Z,16.30
2022-08-05T05:48:48.323Z,16.35
2022-08-05T05:51:23.931Z,16.38
2022-08-05T05:53:57.697Z,16.42
2022-08-05T05:56:33.306Z,16.48
2022-08-05T05:59:05.248Z,16.53
2022-08-05T06:01:37.539Z,16.66
2022-08-05T06:04:11.695Z,16.71
2022-08-05T06:07:42.467Z,16.52
2022-08-05T06:10:29.250Z,16.41
2022-08-05T06:12:57.270Z,16.42
2022-08-05T06:15:25.824Z,16.34
2022-08-05T06:18:15.327Z,16.44
2022-08-05T06:20:43.296Z,16.47
2022-08-05T06:23:16.662Z,16.48
2022-08-05T06:26:13.387Z,16.45
2022-08-05T06:28:32.566Z,16.49
2022-08-05T06:31:01.138Z,16.43
2022-08-05T06:34:07.156Z,16.54
2022-08-05T06:36:29.638Z,16.59
2022-08-05T06:39:18.074Z,16.53
2022-08-05T06:41:50.667Z,16.64
2022-08-05T06:44:22.061Z,16.66
2022-08-05T06:46:51.268Z,16.59
2022-08-05T06:50:01.421Z,16.64
2022-08-05T06:52:36.978Z,16.62
2022-08-05T06:54:59.539Z,16.60
2022-08-05T06:58:03.714Z,16.53
2022-08-05T07:00:22.314Z,16.53
2022-08-05T07:02:54.416Z,16.58
2022-08-05T07:05:37.245Z,16.60
2022-08-05T07:08:06.419Z,16.63
2022-08-05T07:10:39.245Z,16.50
2022-08-05T07:13:57.786Z,16.55
2022-08-05T07:18:00.303Z,16.49
2022-08-05T07:20:10.521Z,16.44
2022-08-05T07:22:29.064Z,16.41
2022-08-05T07:24:59.879Z,16.49
2022-08-05T07:27:57.400Z,16.43
2022-08-05T07:30:39.149Z,16.34
2022-08-05T07:33:10.413Z,16.34
2022-08-05T07:36:03.727Z,16.36
2022-08-05T07:38:42.835Z,16.01
2022-08-05T07:42:14.318Z,16.09
2022-08-05T07:44:14.489Z,16.23
2022-08-05T07:46:49.274Z,16.24
2022-08-05T07:49:18.906Z,15.98
2022-08-05T07:51:53.717Z,15.98
2022-08-05T07:54:31.413Z,16.99
2022-08-05T07:57:17.982Z,17.85
2022-08-05T07:59:52.534Z,18.68
2022-08-05T08:02:26.478Z,18.02
2022-08-05T08:04:55.120Z,18.55
2022-08-05T08:07:23.378Z,17.91
2022-08-05T08:09:54.916Z,17.49
2022-08-05T08:12:37.518Z,17.33
2022-08-05T08:15:15.404Z,17.49
2022-08-05T08:17:52.309Z,17.46
2022-08-05T08:21:00.312Z,17.99
2022-08-05T08:24:00.323Z,17.87
2022-08-05T08:26:02.888Z,18.51
2022-08-05T08:28:36.050Z,18.37
2022-08-05T08:31:05.273Z,18.21
2022-08-05T08:33:38.063Z,18.27
2022-08-05T08:38:57.738Z,18.10
2022-08-05T08:41:51.287Z,17.65
2022-08-05T08:45:22.721Z,17.79
2022-08-05T08:47:21.876Z,17.63
2022-08-05T08:50:23.042Z,18.06
2022-08-05T08:52:51.790Z,18.12
2022-08-05T08:56:02.521Z,17.86
2022-08-05T08:58:16.717Z,18.19
2022-08-05T09:00:44.784Z,17.68
2022-08-05T09:03:16.138Z,18.22
2022-08-05T09:06:09.161Z,18.12
2022-08-05T09:08:40.087Z,17.72
2022-08-05T09:11:13.617Z,18.17
2022-08-05T09:14:00.803Z,18.40
2022-08-05T09:16:32.235Z,18.48
2022-08-05T09:19:00.131Z,18.08
2022-08-05T09:22:23.110Z,18.01
2022-08-05T09:24:17.733Z,18.30
2022-08-05T09:26:48.356Z,17.94
2022-08-05T09:29:21.062Z,17.87
2022-08-05T09:32:42.353Z,17.67
2022-08-05T09:34:54.884Z,17.91
2022-08-05T09:38:16.512Z,17.81
2022-08-05T09:40:31.077Z,18.20
2022-08-05T09:43:00.192Z,18.05
2022-08-05T09:46:06.860Z,17.89
2022-08-05T09:48:32.363Z,18.08
2022-08-05T09:51:01.859Z,18.34
2022-08-05T09:53:53.550Z,18.15
2022-08-05T09:56:27.487Z,18.32
2022-08-05T09:58:59.880Z,18.31
2022-08-05T10:01:32.478Z,18.53
2022-08-05T10:04:03.671Z,18.05
2022-08-05T10:06:32.015Z,18.68
2022-08-05T10:09:27.266Z,18.07
2022-08-05T10:11:56.211Z,18.57
2022-08-05T10:14:26.820Z,18.35
2022-08-05T10:16:57.315Z,18.54
2022-08-05T10:19:31.858Z,18.34
2022-08-05T10:22:15.640Z,18.84
2022-08-05T10:24:57.901Z,18.47
2022-08-05T10:28:09.709Z,18.68
2022-08-05T10:31:20.052Z,18.46
2022-08-05T10:33:08.969Z,18.86
2022-08-05T10:35:43.901Z,19.11
2022-08-05T10:38:14.162Z,19.50
2022-08-05T10:40:49.000Z,19.10
2022-08-05T10:43:30.837Z,19.91
2022-08-05T10:46:07.673Z,19.51
2022-08-05T10:48:56.868Z,19.93
2022-08-05T10:51:28.956Z,19.58
2022-08-05T10:54:00.972Z,20.41
2022-08-05T10:56:32.060Z,20.05
2022-08-05T11:00:01.279Z,19.46
2022-08-05T11:02:08.610Z,20.09
2022-08-05T11:04:59.441Z,20.48
2022-08-05T11:07:33.049Z,20.86
2022-08-05T11:10:23.117Z,20.49
2022-08-05T11:12:56.510Z,20.51
2022-08-05T11:16:00.803Z,20.93
2022-08-05T11:18:30.154Z,20.50
2022-08-05T11:21:11.304Z,20.96
2022-08-05T11:24:04.297Z,21.73
2022-08-05T11:26:33.346Z,21.67
2022-08-05T11:29:12.729Z,21.63
2022-08-05T11:31:58.906Z,21.80
2022-08-05T11:34:47.413Z,21.78
2022-08-05T11:38:28.067Z,22.27
2022-08-05T11:41:12.859Z,21.67
2022-08-05T11:44:05.559Z,22.52
2022-08-05T11:47:09.537Z,21.47
2022-08-05T11:49:34.062Z,22.19
2022-08-05T11:52:11.166Z,22.28
2022-08-05T11:54:41.671Z,21.77
2022-08-05T11:57:25.169Z,22.82
2022-08-05T11:59:55.016Z,22.50
2022-08-05T12:02:30.489Z,22.10
2022-08-05T12:05:01.095Z,21.61
2022-08-05T12:08:07.901Z,21.45
2022-08-05T12:10:24.801Z,21.13
2022-08-05T12:13:16.855Z,21.26
2022-08-05T12:15:49.798Z,21.47
2022-08-05T12:18:20.616Z,21.27
2022-08-05T12:20:52.845Z,21.86
2022-08-05T12:23:20.499Z,22.33
2022-08-05T12:25:56.930Z,21.91
2022-08-05T12:28:37.089Z,22.30
2022-08-05T12:32:09.562Z,22.30
2022-08-05T12:34:38.683Z,22.88
2022-08-05T12:37:17.033Z,22.99
2022-08-05T12:39:51.434Z,22.43
2022-08-05T12:42:25.430Z,23.28
2022-08-05T12:45:02.947Z,23.01
2022-08-05T12:48:01.018Z,23.41
2022-08-05T12:50:27.203Z,24.54
2022-08-05T12:52:59.742Z,24.10
2022-08-05T12:55:33.066Z,24.05
2022-08-05T12:58:49.717Z,22.91
2022-08-05T13:02:00.102Z,22.66
2022-08-05T13:03:43.021Z,22.40
2022-08-05T13:06:16.372Z,22.34
2022-08-05T13:08:52.499Z,22.09
2022-08-05T13:11:47.058Z,21.95
2022-08-05T13:14:19.413Z,22.21
2022-08-05T13:16:51.401Z,22.23
2022-08-05T13:19:22.948Z,22.42
2022-08-05T13:21:55.918Z,22.29
2022-08-05T13:24:45.003Z,22.48
2022-08-05T13:30:53.914Z,22.48
2022-08-05T13:34:21.354Z,23.17
2022-08-05T13:36:14.385Z,22.97
2022-08-05T13:38:43.277Z,24.51
2022-08-05T13:41:11.682Z,23.85
2022-08-05T13:43:44.528Z,23.53
2022-08-05T13:46:37.720Z,23.21
2022-08-05T13:49:12.742Z,24.44
2022-08-05T13:51:46.659Z,24.61
2022-08-05T13:54:16.062Z,25.93
2022-08-05T13:56:50.775Z,26.81
2022-08-05T13:59:21.318Z,25.00
2022-08-05T14:01:57.406Z,24.49
2022-08-05T14:04:49.843Z,25.25
2022-08-05T14:07:57.027Z,25.45
2022-08-05T14:10:12.378Z,26.65
2022-08-05T14:12:42.911Z,25.69
2022-08-05T14:16:04.312Z,27.59
2022-08-05T14:18:01.019Z,26.01
2022-08-05T14:20:30.825Z,24.84
2022-08-05T14:22:58.617Z,25.34
2022-08-05T14:25:28.427Z,24.11
2022-08-05T14:27:58.462Z,26.67
2022-08-05T14:30:27.869Z,25.98
2022-08-05T14:32:56.890Z,26.74
2022-08-05T14:35:37.534Z,26.93
2022-08-05T14:38:32.937Z,24.95
2022-08-05T14:41:06.685Z,25.53
2022-08-05T14:44:02.298Z,24.88
2022-08-05T14:46:29.101Z,26.18
2022-08-05T14:48:58.705Z,27.66
2022-08-05T14:51:30.808Z,26.21
2022-08-05T14:54:25.891Z,26.36
2022-08-05T14:56:54.576Z,26.05
2022-08-05T14:59:22.829Z,28.08
2022-08-05T15:01:51.444Z,26.87
2022-08-05T15:04:23.516Z,24.65
2022-08-05T15:06:56.053Z,23.99
2022-08-05T15:09:52.223Z,24.00
2022-08-05T15:12:16.452Z,25.47
2022-08-05T15:14:49.525Z,26.26
2022-08-05T15:17:47.709Z,27.08
2022-08-05T15:20:17.206Z,25.21
2022-08-05T15:22:53.979Z,26.16
2022-08-05T15:25:50.859Z,26.42
2022-08-05T15:28:14.395Z,26.55
2022-08-05T15:30:43.307Z,26.96
2022-08-05T15:33:11.730Z,25.51
2022-08-05T15:35:45.399Z,27.21
2022-08-05T15:38:34.854Z,27.18
2022-08-05T15:41:23.235Z,25.60
2022-08-05T15:43:52.224Z,27.34
2022-08-05T15:46:24.076Z,28.54
2022-08-05T15:49:01.062Z,28.27
2022-08-05T15:52:13.375Z,28.38
2022-08-05T15:54:35.176Z,28.22
2022-08-05T15:58:07.394Z,27.47
2022-08-05T16:00:56.998Z,28.13
2022-08-05T16:04:29.804Z,26.12
2022-08-05T16:06:58.156Z,29.39
2022-08-05T16:09:26.163Z,27.19
2022-08-05T16:11:54.447Z,27.91
2022-08-05T16:14:24.115Z,26.06
2022-08-05T16:16:54.727Z,25.86
2022-08-05T16:20:03.505Z,26.98
2022-08-05T16:22:13.327Z,27.19
2022-08-05T16:24:51.784Z,28.59
2022-08-05T16:27:47.279Z,29.36
2022-08-05T16:30:23.014Z,29.12
2022-08-05T16:32:55.340Z,28.33
2022-08-05T16:35:27.691Z,29.71
2022-08-05T16:38:16.109Z,27.34
2022-08-05T16:40:51.615Z,26.81
2022-08-05T16:43:24.286Z,28.90
2022-08-05T16:46:03.761Z,28.26
2022-08-05T16:48:38.920Z,27.26
2022-08-05T16:51:09.748Z,26.55
2022-08-05T16:54:04.304Z,25.99
2022-08-05T16:57:53.334Z,26.58
2022-08-05T17:00:26.306Z,26.10
2022-08-05T17:03:09.123Z,26.19
2022-08-05T17:05:44.741Z,26.83
2022-08-05T17:08:36.348Z,27.46
2022-08-05T17:11:12.544Z,25.36
2022-08-05T17:13:44.663Z,26.81
2022-08-05T17:16:29.935Z,27.03
2022-08-05T17:19:01.674Z,25.23
2022-08-05T17:21:35.680Z,25.77
2022-08-05T17:24:18.471Z,23.61
2022-08-05T17:26:53.715Z,23.93
2022-08-05T17:29:33.646Z,23.78
2022-08-05T17:32:11.781Z,24.62
2022-08-05T17:34:44.740Z,24.46
2022-08-05T17:37:41.165Z,24.66
2022-08-05T17:40:12.245Z,24.01
2022-08-05T17:42:51.369Z,23.73
2022-08-05T17:45:25.016Z,23.29
2022-08-05T17:47:57.631Z,22.28
2022-08-05T17:50:30.811Z,22.07
2022-08-05T17:53:04.642Z,21.82
2022-08-05T17:56:34.524Z,21.64
2022-08-05T17:59:05.371Z,20.95
2022-08-05T18:01:49.268Z,21.14
2022-08-05T18:04:21.049Z,21.01
2022-08-05T18:06:49.258Z,20.77
2022-08-05T18:09:19.233Z,20.74
2022-08-05T18:11:49.747Z,20.39
2022-08-05T18:14:22.251Z,20.59
2022-08-05T18:16:51.891Z,20.24
2022-08-05T18:19:22.644Z,20.18
2022-08-05T18:22:08.775Z,19.98
2022-08-05T18:24:40.361Z,19.97
2022-08-05T18:27:12.671Z,19.80
2022-08-05T18:29:54.017Z,19.86
2022-08-05T18:37:02.895Z,19.37
2022-08-05T18:40:30.979Z,19.27
2022-08-05T18:42:21.317Z,19.24
2022-08-05T18:44:55.673Z,19.11
2022-08-05T18:47:26.396Z,19.00
2022-08-05T18:50:12.879Z,18.94
2022-08-05T18:52:51.262Z,18.73
2022-08-05T18:56:25.389Z,18.73
2022-08-05T18:59:01.050Z,18.70
2022-08-05T19:01:47.846Z,18.55
2022-08-05T19:04:23.753Z,18.49
2022-08-05T19:06:54.447Z,18.47
2022-08-05T19:09:23.530Z,18.28
2022-08-05T19:12:01.022Z,17.97
2022-08-05T19:14:59.218Z,17.62
2022-08-05T19:17:22.198Z,17.68
2022-08-05T19:19:56.114Z,17.83
2022-08-05T19:22:27.808Z,17.92
2022-08-05T19:25:00.817Z,17.83
2022-08-05T19:27:30.818Z,17.77
2022-08-05T19:30:01.554Z,17.76
2022-08-05T19:32:32.121Z,17.69
2022-08-05T19:35:05.807Z,17.72
2022-08-05T19:38:04.669Z,17.75
2022-08-05T19:40:24.210Z,17.65
2022-08-05T19:43:00.872Z,17.46
2022-08-05T19:45:36.934Z,17.58
2022-08-05T19:48:05.651Z,17.40
2022-08-05T19:50:35.107Z,17.26
2022-08-05T19:53:09.418Z,17.30
2022-08-05T19:56:19.234Z,17.23
2022-08-05T19:58:29.465Z,17.22
2022-08-05T20:01:02.211Z,17.10
2022-08-05T20:03:38.714Z,16.78
2022-08-05T20:09:53.573Z,17.05
2022-08-05T20:12:23.748Z,16.96
2022-08-05T20:14:52.490Z,17.06
2022-08-05T20:17:24.692Z,16.81
2022-08-05T20:19:56.568Z,16.74
2022-08-05T20:22:27.132Z,16.78
2022-08-05T20:24:55.351Z,16.82
2022-08-05T20:27:26.694Z,16.67
2022-08-05T20:29:58.288Z,16.61
2022-08-05T20:32:28.622Z,16.44
2022-08-05T20:34:57.007Z,15.59
2022-08-05T20:38:06.227Z,16.26
2022-08-05T20:40:14.203Z,16.24
2022-08-05T20:42:41.839Z,15.83
2022-08-05T20:45:12.214Z,15.92
2022-08-05T20:47:42.284Z,16.14
2022-08-05T20:50:12.080Z,16.11
2022-08-05T20:52:42.215Z,16.05
2022-08-05T20:56:07.274Z,16.09
2022-08-05T20:57:58.409Z,16.08
2022-08-05T21:00:44.434Z,15.94
2022-08-05T21:03:21.517Z,16.01
2022-08-05T21:05:53.829Z,15.94
2022-08-05T21:08:26.682Z,16.01
2022-08-05T21:10:58.352Z,15.96
2022-08-05T21:13:48.354Z,16.02
2022-08-05T21:16:20.823Z,15.95
2022-08-05T21:18:52.350Z,15.91
2022-08-05T21:21:20.423Z,16.04
2022-08-05T21:23:52.989Z,16.06
2022-08-05T21:26:20.825Z,16.02
2022-08-05T21:28:56.227Z,15.95
2022-08-05T21:31:41.303Z,15.88
2022-08-05T21:34:11.456Z,15.74
2022-08-05T21:36:39.569Z,15.83
2022-08-05T21:39:14.249Z,15.69
2022-08-05T21:41:52.809Z,15.67
2022-08-05T21:44:28.678Z,15.69
2022-08-05T21:46:58.238Z,15.63
2022-08-05T21:49:59.336Z,15.66
2022-08-05T21:52:27.894Z,15.54
2022-08-05T21:56:09.640Z,15.56
2022-08-05T21:58:48.225Z,15.51
2022-08-05T22:01:25.900Z,15.47
2022-08-05T22:03:54.057Z,15.03
2022-08-05T22:06:35.581Z,14.90
2022-08-05T22:09:14.557Z,15.05
2022-08-05T22:11:46.970Z,15.11
2022-08-05T22:14:33.713Z,14.95
2022-08-05T22:17:06.807Z,14.85
2022-08-05T22:20:00.270Z,14.94
2022-08-05T22:22:29.828Z,14.83
2022-08-05T22:25:18.067Z,14.77
2022-08-05T22:28:11.166Z,14.74
2022-08-05T22:30:55.345Z,14.48
2022-08-05T22:33:55.898Z,14.18
2022-08-05T22:36:15.134Z,14.46
2022-08-05T22:38:48.185Z,14.46
2022-08-05T22:42:05.554Z,13.84
2022-08-05T22:44:05.818Z,14.27
2022-08-05T22:46:39.964Z,14.22
2022-08-05T22:49:12.443Z,13.43
2022-08-05T22:52:05.945Z,13.22
2022-08-05T22:54:37.360Z,13.04
2022-08-05T22:57:08.553Z,12.91
2022-08-05T22:59:43.966Z,13.06
2022-08-05T23:02:17.891Z,13.04
2022-08-05T23:04:51.949Z,12.93
2022-08-05T23:07:22.251Z,13.36
2022-08-05T23:10:01.731Z,13.06
2022-08-05T23:12:32.585Z,13.51
2022-08-05T23:15:01.346Z,13.13
2022-08-05T23:17:37.156Z,12.68
2022-08-05T23:20:10.546Z,12.41
2022-08-05T23:22:47.736Z,12.26
2022-08-05T23:25:53.523Z,12.26
2022-08-05T23:28:08.828Z,11.97
2022-08-05T23:30:40.633Z,12.28
2022-08-05T23:33:22.092Z,12.18
2022-08-05T23:35:56.303Z,12.06
2022-08-05T23:38:25.907Z,12.05
2022-08-05T23:40:55.303Z,11.98
2022-08-05T23:43:37.312Z,12.02
2022-08-05T23:46:20.215Z,11.95
2022-08-05T23:49:52.209Z,12.03
2022-08-05T23:52:30.732Z,11.88
2022-08-05T23:55:00.745Z,11.88
2022-08-05T23:57:32.769Z,11.73
